EDDN Airport Information

Runway Information
Runway 10 Length 8858 ft width 148 ft
Elevation 1022 ft Threshold 0 ft Heading 99
Runway 28 Length 8858 ft Width 148 ft
Elevation 1046 ft Threshold 0 ft Heading 279
Airport Frequencies
Type AFIS Name MUNCHEN IN Frequency 120.65 MHZ
Type ATIS Name ATIS Frequency 123.075 MHZ
Type DIR Name DIR Frequency 119.475 MHZ
Type GND Name GND Frequency 118.1 MHZ
Type RDR Name MUNCHEN RA Frequency 118.975 MHZ
Type TWR Name TWR Frequency 118.3 MHZ
Airport Navaids
Type DME Name Nurnberg Frequency 113100 KHZ
Type NDB Name Rothenbach Frequency 415 KHZ
Airport Weather Information & NOTAM
ADDS - METARS form results

(0600 UTC 21 July 2018)
 
METAR text: EDDN 210550Z VRB02KT 9999 -RA FEW035 SCT070 BKN100 20/15 Q1011 TEMPO SHRA BKN040CB
Conditions at: EDDN (NUERNBERG , DE) observed 0550 UTC 21 July 2018
Temperature: 20.0°C (68°F)
Dewpoint: 15.0°C (59°F) [RH = 73%]
Pressure (altimeter): 29.85 inches Hg (1011.0 mb)
Winds: variable direction winds at 2 MPH (2 knots; 1.0 m/s)
Visibility: 6 or more miles (10+ km)
Ceiling: 10000 feet AGL
Clouds: few clouds at 3500 feet AGL
scattered clouds at 7000 feet AGL
broken clouds at 10000 feet AGL
Weather: -RA  (light rain)

METAR text: EDDN 210520Z 22004KT CAVOK 20/14 Q1011 NOSIG
Conditions at: EDDN (NUERNBERG , DE) observed 0520 UTC 21 July 2018
Temperature: 20.0°C (68°F)
Dewpoint: 14.0°C (57°F) [RH = 68%]
Pressure (altimeter): 29.85 inches Hg (1011.0 mb)
Winds: from the SW (220 degrees) at 5 MPH (4 knots; 2.1 m/s)
Visibility: 6 or more miles (10+ km)
Ceiling: ceiling and visibility are OK
Clouds: unknown
Weather: no significant weather observed at this time